Time;durP1;ratioP1;P1;durP2;ratioP2;P2;SDS_P1;SDS_P2;PMS_P1;PMS_P2;Temp;Humidity;BMP_temperature;BMP_pressure;BME280_temperature;BME280_humidity;BME280_pressure;Samples;Min_cycle;Max_cycle;Signal;HPM_P1;HPM_P2
2021/03/10 00:02:51;;;;;;;56.1;35.8;;;;;;;-5.23;89.01367;99001.84;;;;
2021/03/10 00:12:48;;;;;;;71.7;42.9;;;;;;;-5.35;91.01172;99004.24;;;;
2021/03/10 00:22:45;;;;;;;78.6;43.5;;;;;;;-5.35;91.67188;99006.88;;;;
2021/03/10 00:32:42;;;;;;;67.9;38;;;;;;;-5.17;91.96094;99001.87;;;;
2021/03/10 00:42:39;;;;;;;64.1;41.4;;;;;;;-5.01;92.05957;98995.47;;;;
2021/03/10 00:52:36;;;;;;;51.3;36.2;;;;;;;-5.03;93.50391;98973.03;;;;
2021/03/10 01:02:33;;;;;;;58.7;40.2;;;;;;;-5.11;94.03125;98969.58;;;;
2021/03/10 01:12:30;;;;;;;76.5;39.2;;;;;;;-5.36;94.53613;98976.35;;;;
2021/03/10 01:22:27;;;;;;;55.5;39.3;;;;;;;-5.44;94.33398;98973.88;;;;
2021/03/10 01:32:24;;;;;;;66.2;39.2;;;;;;;-5.54;94.07422;98969.99;;;;
2021/03/10 01:42:21;;;;;;;44.6;31.8;;;;;;;-5.61;95.01074;98973.41;;;;
2021/03/10 01:52:18;;;;;;;47.9;28.3;;;;;;;-5.59;94.33203;98967.97;;;;
2021/03/10 02:02:15;;;;;;;52.6;31.9;;;;;;;-5.72;93.99121;98963.45;;;;
2021/03/10 02:12:22;;;;;;;68.9;38.5;;;;;;;-5.84;94.70801;98958.95;;;;
2021/03/10 02:22:21;;;;;;;59.3;36.3;;;;;;;-5.99;94.56641;98976.64;;;;
2021/03/10 02:32:06;;;;;;;53;32.6;;;;;;;-6.16;97.46387;98971.7;;;;
2021/03/10 02:42:02;;;;;;;43.5;30.9;;;;;;;-6.07;97.54688;98966.31;;;;
2021/03/10 02:51:59;;;;;;;58.2;35.5;;;;;;;-6.03;97.33984;98978.02;;;;
2021/03/10 03:01:56;;;;;;;57.6;30.5;;;;;;;-6.02;97.21387;98974.41;;;;
2021/03/10 03:21:51;;;;;;;50.6;31.6;;;;;;;-6.06;96.66504;98973.16;;;;
2021/03/10 03:31:47;;;;;;;47.1;32.6;;;;;;;-6.19;95.25781;98974.7;;;;
2021/03/10 03:41:44;;;;;;;59.6;32.4;;;;;;;-6.33;96.46484;98970.36;;;;
2021/03/10 03:51:41;;;;;;;54.3;35.9;;;;;;;-6.48;97.02051;98968.81;;;;
2021/03/10 04:01:38;;;;;;;64.1;34.4;;;;;;;-6.63;97.21582;98974.94;;;;
2021/03/10 04:11:35;;;;;;;51.2;33.7;;;;;;;-6.82;97.63184;98990.48;;;;
2021/03/10 04:21:31;;;;;;;57;36.8;;;;;;;-6.86;98.87305;98984.8;;;;
2021/03/10 04:31:28;;;;;;;43.7;33.3;;;;;;;-6.88;97.94141;98988.62;;;;
2021/03/10 04:41:25;;;;;;;46.9;33.4;;;;;;;-7.03;97.0332;98985.23;;;;
2021/03/10 04:51:22;;;;;;;54.8;32;;;;;;;-7.15;99.20215;98992.77;;;;
2021/03/10 05:01:19;;;;;;;49.8;29.5;;;;;;;-7.27;97.95996;98992.42;;;;
2021/03/10 05:11:16;;;;;;;42.1;29.6;;;;;;;-7.38;98.24414;99002.55;;;;
2021/03/10 05:21:12;;;;;;;47.8;30.3;;;;;;;-7.37;97.76367;98999.76;;;;
2021/03/10 05:31:09;;;;;;;48.3;30.2;;;;;;;-7.31;97.95996;99012.11;;;;
2021/03/10 05:41:06;;;;;;;66.3;37.2;;;;;;;-7.19;100;99009.84;;;;
2021/03/10 05:51:03;;;;;;;62.5;40.4;;;;;;;-6.92;100;99018.8;;;;
2021/03/10 06:01:00;;;;;;;98.6;58.1;;;;;;;-6.47;100;99025.49;;;;
2021/03/10 06:10:56;;;;;;;90;53.3;;;;;;;-6.02;100;99027.69;;;;
2021/03/10 06:20:53;;;;;;;59.2;42.3;;;;;;;-5.57;99.95215;99028.97;;;;
2021/03/10 06:30:51;;;;;;;50.4;34.9;;;;;;;-5.05;98.61621;99044.17;;;;
2021/03/10 06:40:47;;;;;;;49.8;37.8;;;;;;;-4.66;98.07031;99054.82;;;;
2021/03/10 06:50:44;;;;;;;60.2;42.8;;;;;;;-4.38;97.02832;99061.75;;;;
2021/03/10 07:00:41;;;;;;;71.2;44.8;;;;;;;-4.08;95.32227;99071.7;;;;
2021/03/10 07:10:38;;;;;;;58;41.2;;;;;;;-3.63;94.70605;99074.52;;;;
2021/03/10 07:20:35;;;;;;;64.8;47.1;;;;;;;-3.29;92;99074.25;;;;
2021/03/10 07:30:33;;;;;;;71.4;46.7;;;;;;;-2.96;90.8418;99084.71;;;;
2021/03/10 07:40:30;;;;;;;58.9;41.5;;;;;;;-2.62;89.8125;99099.38;;;;
2021/03/10 07:50:27;;;;;;;64.7;37.9;;;;;;;-2.19;88.58496;99102.2;;;;
2021/03/10 08:00:24;;;;;;;43.3;36.3;;;;;;;-1.69;85.47656;99093.28;;;;
2021/03/10 08:10:22;;;;;;;52.3;38;;;;;;;-1.39;82.21875;99089.98;;;;
2021/03/10 08:20:19;;;;;;;38;32.5;;;;;;;-1.16;80.32324;99085.67;;;;
2021/03/10 08:30:17;;;;;;;34.3;28.6;;;;;;;-0.51;78.71191;99086.72;;;;
2021/03/10 08:40:14;;;;;;;21.3;13.5;;;;;;;-0.54;66.10156;99100.41;;;;
2021/03/10 08:50:12;;;;;;;21.8;15.5;;;;;;;-0.1;64.64551;99104.48;;;;
2021/03/10 09:00:09;;;;;;;12.7;9;;;;;;;-0.03;61.35156;99099.09;;;;
2021/03/10 09:10:07;;;;;;;19.7;12.8;;;;;;;0.34;61.15039;99097.1;;;;
2021/03/10 09:20:05;;;;;;;13.5;10.4;;;;;;;0.39;56.62793;99091.91;;;;
2021/03/10 09:30:02;;;;;;;18.3;10.7;;;;;;;0.9;57.07129;99093.88;;;;
2021/03/10 09:40:00;;;;;;;11.7;10;;;;;;;0.88;55.46094;99086.14;;;;
2021/03/10 09:49:57;;;;;;;16.8;11.6;;;;;;;1.05;54.62695;99086.23;;;;
2021/03/10 09:59:55;;;;;;;12.7;8.6;;;;;;;1.48;54.12695;99086.59;;;;
2021/03/10 10:09:53;;;;;;;13.9;9.8;;;;;;;1.4;51.72461;99094.11;;;;
2021/03/10 10:19:51;;;;;;;13.2;8.8;;;;;;;1.43;49.58008;99098.95;;;;
2021/03/10 10:29:51;;;;;;;14.2;9.2;;;;;;;1.43;49.59277;99089.14;;;;
2021/03/10 10:39:46;;;;;;;12.5;10;;;;;;;1.86;50.47754;99082.5;;;;
2021/03/10 10:49:44;;;;;;;12.1;8.8;;;;;;;1.87;49.59863;99090.25;;;;
2021/03/10 10:59:41;;;;;;;11.1;8.5;;;;;;;2.08;50.09082;99075.45;;;;
2021/03/10 11:09:40;;;;;;;9.8;8.3;;;;;;;1.97;48.31738;99090.42;;;;
2021/03/10 11:19:38;;;;;;;12.4;9.1;;;;;;;1.81;48.53223;99088.52;;;;
2021/03/10 11:29:35;;;;;;;16;10;;;;;;;2.05;48.21387;99080.45;;;;
2021/03/10 11:39:33;;;;;;;16.9;11.7;;;;;;;2.57;48.71875;99075.7;;;;
2021/03/10 11:49:31;;;;;;;14.2;9.6;;;;;;;2.15;48.52539;99083.27;;;;
2021/03/10 11:59:28;;;;;;;11.6;8.4;;;;;;;2.21;49.41406;99077.8;;;;
2021/03/10 12:09:26;;;;;;;13.6;9.8;;;;;;;2.27;47.21191;99076.02;;;;
2021/03/10 12:19:24;;;;;;;10;8.7;;;;;;;2.07;46.83301;99087.13;;;;
2021/03/10 12:29:22;;;;;;;13.2;7.4;;;;;;;2.27;48.20508;99081.33;;;;
2021/03/10 12:39:20;;;;;;;13.2;8.3;;;;;;;2.7;47.34863;99083.33;;;;
2021/03/10 12:49:18;;;;;;;14.2;9.9;;;;;;;2.69;47.52539;99071.07;;;;
2021/03/10 12:59:15;;;;;;;13.9;9.8;;;;;;;2.72;47.73047;99073.23;;;;
2021/03/10 13:09:13;;;;;;;14.5;9.8;;;;;;;2.9;46.62207;99079.11;;;;
2021/03/10 13:19:11;;;;;;;14;10.1;;;;;;;2.45;48.58301;99091.73;;;;
2021/03/10 13:29:09;;;;;;;11.9;9.3;;;;;;;2.21;49.6709;99095.59;;;;
2021/03/10 13:39:07;;;;;;;17.5;15.7;;;;;;;1.92;51.01953;99111.58;;;;
2021/03/10 13:49:05;;;;;;;27.6;18.4;;;;;;;2.73;49.38477;99101.47;;;;
2021/03/10 13:59:03;;;;;;;17.6;13;;;;;;;2.17;51.00391;99107.76;;;;
2021/03/10 14:09:01;;;;;;;12.3;10;;;;;;;1.64;51.50977;99116.89;;;;
2021/03/10 14:18:58;;;;;;;10.5;7.5;;;;;;;1.92;51.44336;99116.91;;;;
2021/03/10 14:28:57;;;;;;;17.6;9.8;;;;;;;2.3;51.35547;99113.56;;;;
2021/03/10 14:38:54;;;;;;;13.8;11.8;;;;;;;2.46;49.62207;99098.67;;;;
2021/03/10 14:48:52;;;;;;;16.5;10.6;;;;;;;2.45;51.00488;99086.42;;;;
2021/03/10 14:58:51;;;;;;;14.6;9.1;;;;;;;1.77;52.39355;99079.41;;;;
2021/03/10 15:08:48;;;;;;;16.1;11;;;;;;;1.55;51.35352;99080.33;;;;
2021/03/10 15:18:45;;;;;;;13.4;9.7;;;;;;;1.51;52.35059;99069.37;;;;
2021/03/10 15:28:43;;;;;;;22.2;14;;;;;;;1.34;52.25195;99076.47;;;;
2021/03/10 15:38:41;;;;;;;17.5;11.8;;;;;;;0.85;52.76953;99093.76;;;;
2021/03/10 15:48:38;;;;;;;17;14.4;;;;;;;0.92;53.12207;99081.99;;;;
2021/03/10 15:58:36;;;;;;;17.7;12.9;;;;;;;0.89;52.6416;99087.77;;;;
2021/03/10 16:08:34;;;;;;;18.9;12.1;;;;;;;0.3;54.4873;99094.1;;;;
2021/03/10 16:18:32;;;;;;;19.3;14.6;;;;;;;-0.29;55.96094;99107.42;;;;
2021/03/10 16:28:29;;;;;;;17.7;15.7;;;;;;;-0.7;57.28809;99113.45;;;;
2021/03/10 16:38:26;;;;;;;24.8;15;;;;;;;-1.15;57.37207;99118.22;;;;
2021/03/10 16:48:24;;;;;;;19.7;13.5;;;;;;;-1.61;58.91992;99127.38;;;;
2021/03/10 16:58:21;;;;;;;19.4;13.1;;;;;;;-2.11;59.67578;99136.25;;;;
2021/03/10 17:08:18;;;;;;;27.3;21.3;;;;;;;-2.42;62.79883;99142.31;;;;
2021/03/10 17:18:16;;;;;;;45.4;32.5;;;;;;;-2.67;63.99121;99141.39;;;;
2021/03/10 17:28:13;;;;;;;41.2;27.7;;;;;;;-3;65.22656;99136.23;;;;
2021/03/10 17:38:10;;;;;;;38.5;25.7;;;;;;;-3.28;66.69434;99154.94;;;;
2021/03/10 17:48:07;;;;;;;45.1;31;;;;;;;-3.72;67.91602;99139.77;;;;
2021/03/10 17:58:04;;;;;;;27.3;22.1;;;;;;;-3.67;69.11523;99139.15;;;;
2021/03/10 18:08:01;;;;;;;29.6;23.2;;;;;;;-3.8;68.99512;99157.58;;;;
2021/03/10 18:17:58;;;;;;;33.6;22.9;;;;;;;-3.89;69.71484;99159.61;;;;
2021/03/10 18:27:56;;;;;;;29.7;21.4;;;;;;;-4.04;69.64453;99168.69;;;;
2021/03/10 18:37:53;;;;;;;27;21.8;;;;;;;-4.13;70.4834;99162.81;;;;
2021/03/10 18:47:52;;;;;;;35;19.6;;;;;;;-4.23;70.34668;99160.53;;;;
2021/03/10 18:57:47;;;;;;;35;24.6;;;;;;;-4.47;70.4248;99178.66;;;;
2021/03/10 19:07:44;;;;;;;35;25.4;;;;;;;-4.44;71.31445;99186.97;;;;
2021/03/10 19:17:40;;;;;;;33.2;22;;;;;;;-4.71;71.71777;99204.45;;;;
2021/03/10 19:27:37;;;;;;;59.1;27;;;;;;;-4.66;71.84473;99202.07;;;;
2021/03/10 19:37:34;;;;;;;54.5;31.9;;;;;;;-4.72;72.49805;99212.56;;;;
2021/03/10 19:47:31;;;;;;;62.4;36.6;;;;;;;-4.79;72.44336;99206.45;;;;
2021/03/10 19:57:28;;;;;;;34.9;27.9;;;;;;;-4.77;73.50293;99212.31;;;;
2021/03/10 20:07:25;;;;;;;46;31;;;;;;;-4.61;73.41113;99217.24;;;;
2021/03/10 20:17:22;;;;;;;50.9;31.5;;;;;;;-4.83;73.80859;99210.47;;;;
2021/03/10 20:27:20;;;;;;;51.6;29.3;;;;;;;-4.81;74.03125;99211.89;;;;
2021/03/10 20:37:16;;;;;;;41.9;26.3;;;;;;;-5.12;73.55176;99211.48;;;;
2021/03/10 20:47:13;;;;;;;40.1;30;;;;;;;-4.99;74.54199;99195.8;;;;
2021/03/10 20:57:10;;;;;;;61.4;40.9;;;;;;;-4.88;74.46484;99187.38;;;;
2021/03/10 21:07:09;;;;;;;68.8;39.2;;;;;;;-5.04;75.00195;99185.07;;;;
2021/03/10 21:17:04;;;;;;;55.1;34;;;;;;;-5.19;74.31152;99176.47;;;;
2021/03/10 21:27:01;;;;;;;48.8;29.9;;;;;;;-5.1;74.48145;99157.73;;;;
2021/03/10 21:36:58;;;;;;;48.3;30.7;;;;;;;-4.91;73.22754;99137.02;;;;
2021/03/10 21:46:55;;;;;;;41.2;26.3;;;;;;;-4.89;73.2002;99106.89;;;;
2021/03/10 21:56:52;;;;;;;58.4;32.3;;;;;;;-4.88;73.5498;99084.87;;;;
2021/03/10 22:06:49;;;;;;;20.9;12.1;;;;;;;-5.18;73.94434;99081.71;;;;
2021/03/10 22:16:46;;;;;;;40.8;23.9;;;;;;;-5.12;75.92383;99086.18;;;;
2021/03/10 22:26:43;;;;;;;42.2;23.5;;;;;;;-5.04;75.05469;99094.91;;;;
2021/03/10 22:36:40;;;;;;;38.2;24;;;;;;;-5.04;75.39355;99098.35;;;;
2021/03/10 22:46:37;;;;;;;40.5;23.5;;;;;;;-5.16;75.58008;99095.45;;;;
2021/03/10 22:56:34;;;;;;;44.1;24;;;;;;;-5.18;75.56445;99091.41;;;;
2021/03/10 23:06:32;;;;;;;41.5;26.1;;;;;;;-5.28;76.04688;99090.95;;;;
2021/03/10 23:16:28;;;;;;;34.5;19.6;;;;;;;-5.44;75.86523;99097.31;;;;
2021/03/10 23:26:25;;;;;;;47.9;24.9;;;;;;;-5.56;75.94238;99098.86;;;;
2021/03/10 23:36:21;;;;;;;36.5;23.4;;;;;;;-5.7;76.13379;99089.27;;;;
2021/03/10 23:46:18;;;;;;;32;18;;;;;;;-5.88;77.87988;99091.58;;;;
2021/03/10 23:56:15;;;;;;;24.4;16.7;;;;;;;-5.9;78.12598;99090.97;;;;
